Time;durP1;ratioP1;P1;durP2;ratioP2;P2;SDS_P1;SDS_P2;PMS_P1;PMS_P2;Temp;Humidity;BMP_temperature;BMP_pressure;BME280_temperature;BME280_humidity;BME280_pressure;Samples;Min_cycle;Max_cycle;Signal;HPM_P1;HPM_P2
2023/08/07 00:01:36;;;;;;;;;;;14.70;87.20;;;;;;4988897;28;19926;-79
2023/08/07 00:04:05;;;;;;;;;;;14.70;87.20;;;;;;4988956;28;19930;-79
2023/08/07 00:06:35;;;;;;;;;;;14.70;87.30;;;;;;4989534;28;20016;-78
2023/08/07 00:09:03;;;;;;;;;;;14.70;87.20;;;;;;4988034;28;20353;-78
2023/08/07 00:11:36;;;;;;;;;;;14.70;87.20;;;;;;4988920;28;20341;-79
2023/08/07 00:14:06;;;;;;;;;;;14.60;87.50;;;;;;4988606;28;20305;-78
2023/08/07 00:16:38;;;;;;;;;;;14.60;87.40;;;;;;4988697;28;19933;-71
2023/08/07 00:19:07;;;;;;;;;;;14.70;87.40;;;;;;4988650;28;21049;-71
2023/08/07 00:21:37;;;;;;;;;;;14.60;87.50;;;;;;4989020;28;19931;-71
2023/08/07 00:24:05;;;;;;;;;;;14.70;87.50;;;;;;4989391;28;19930;-71
2023/08/07 00:26:33;;;;;;;;;;;14.60;87.60;;;;;;4986543;28;20369;-71
2023/08/07 00:29:00;;;;;;;;;;;14.70;87.40;;;;;;4989641;28;19926;-71
2023/08/07 00:31:30;;;;;;;;;;;14.70;87.50;;;;;;4987095;28;19936;-72
2023/08/07 00:34:00;;;;;;;;;;;14.70;87.50;;;;;;4989245;28;20028;-71
2023/08/07 00:36:34;;;;;;;;;;;14.60;87.40;;;;;;4988746;28;19930;-71
2023/08/07 00:39:03;;;;;;;;;;;14.60;87.40;;;;;;4974642;28;19926;-71
2023/08/07 00:41:33;;;;;;;;;;;14.60;87.30;;;;;;4968196;28;20017;-71
2023/08/07 00:44:03;;;;;;;;;;;14.70;87.30;;;;;;4967045;28;20462;-71
2023/08/07 00:46:31;;;;;;;;;;;14.60;87.30;;;;;;4981677;28;20008;-70
2023/08/07 00:49:00;;;;;;;;;;;14.60;87.60;;;;;;4988478;28;20445;-71
2023/08/07 00:51:28;;;;;;;;;;;14.60;87.60;;;;;;4988828;28;19934;-72
2023/08/07 00:53:55;;;;;;;;;;;14.60;87.30;;;;;;4988977;28;20036;-72
2023/08/07 00:56:26;;;;;;;;;;;14.60;87.20;;;;;;4987681;28;19933;-72
2023/08/07 00:58:56;;;;;;;;;;;14.60;87.40;;;;;;4987087;28;20027;-71
2023/08/07 01:01:36;;;;;;;;;;;14.60;87.30;;;;;;4984473;28;19961;-71
2023/08/07 01:04:14;;;;;;;;;;;14.60;87.30;;;;;;4986358;28;19929;-71
2023/08/07 01:06:50;;;;;;;;;;;14.50;87.40;;;;;;4987843;28;19930;-72
2023/08/07 01:09:21;;;;;;;;;;;14.50;87.40;;;;;;4989318;28;19930;-71
2023/08/07 01:11:53;;;;;;;;;;;14.50;87.40;;;;;;4986942;28;19944;-71
2023/08/07 01:14:26;;;;;;;;;;;14.50;87.30;;;;;;4988568;28;19930;-71
2023/08/07 01:17:01;;;;;;;;;;;14.50;87.40;;;;;;4987300;28;19936;-71
2023/08/07 01:19:33;;;;;;;;;;;14.50;87.30;;;;;;4988051;28;20016;-71
2023/08/07 01:22:14;;;;;;;;;;;14.40;87.20;;;;;;4986511;28;19930;-71
2023/08/07 01:24:47;;;;;;;;;;;14.40;87.40;;;;;;4988301;28;19933;-72
2023/08/07 01:27:27;;;;;;;;;;;14.40;87.30;;;;;;4987541;28;19934;-70
2023/08/07 01:30:01;;;;;;;;;;;14.40;87.30;;;;;;4987042;28;19934;-70
2023/08/07 01:32:34;;;;;;;;;;;14.40;87.40;;;;;;4968976;28;19934;-70
2023/08/07 01:35:04;;;;;;;;;;;14.40;87.40;;;;;;4957880;28;19927;-71
2023/08/07 01:37:35;;;;;;;;;;;14.40;87.30;;;;;;4950520;28;19926;-69
2023/08/07 01:40:03;;;;;;;;;;;14.40;87.30;;;;;;4967521;28;20054;-70
2023/08/07 01:42:32;;;;;;;;;;;14.40;87.50;;;;;;4969659;28;20460;-70
2023/08/07 01:45:01;;;;;;;;;;;14.30;87.20;;;;;;4988651;28;20106;-71
2023/08/07 01:47:31;;;;;;;;;;;14.40;87.30;;;;;;4983518;28;20647;-70
2023/08/07 01:50:02;;;;;;;;;;;14.40;87.30;;;;;;4988077;28;19929;-69
2023/08/07 01:52:29;;;;;;;;;;;14.40;87.30;;;;;;4987457;28;19930;-70
2023/08/07 01:55:00;;;;;;;;;;;14.30;87.40;;;;;;4987434;28;19929;-70
2023/08/07 01:57:28;;;;;;;;;;;14.30;87.40;;;;;;4984191;28;19933;-70
2023/08/07 01:59:59;;;;;;;;;;;14.30;87.30;;;;;;4987464;28;19932;-70
2023/08/07 02:02:26;;;;;;;;;;;14.30;87.50;;;;;;5001995;28;19925;-69
2023/08/07 02:04:53;;;;;;;;;;;14.30;87.40;;;;;;4974170;28;19934;-70
2023/08/07 02:07:20;;;;;;;;;;;14.30;87.40;;;;;;4966935;28;19984;-70
2023/08/07 02:09:48;;;;;;;;;;;14.30;87.40;;;;;;4979303;28;20381;-69
2023/08/07 02:12:19;;;;;;;;;;;14.30;87.50;;;;;;5004820;28;19929;-69
2023/08/07 02:14:51;;;;;;;;;;;14.30;87.30;;;;;;4990304;28;20865;-70
2023/08/07 02:17:23;;;;;;;;;;;14.30;87.10;;;;;;5006681;28;19929;-69
2023/08/07 02:19:53;;;;;;;;;;;14.30;87.10;;;;;;4990360;28;19980;-72
2023/08/07 02:22:21;;;;;;;;;;;14.30;87.20;;;;;;4973878;28;19926;-70
2023/08/07 02:24:51;;;;;;;;;;;14.20;87.40;;;;;;4991787;28;19926;-69
2023/08/07 02:27:19;;;;;;;;;;;14.20;87.50;;;;;;4990389;28;19930;-71
2023/08/07 02:29:53;;;;;;;;;;;14.20;87.60;;;;;;4989504;28;19933;-70
2023/08/07 02:32:28;;;;;;;;;;;14.20;87.60;;;;;;4991701;28;20381;-69
2023/08/07 02:35:00;;;;;;;;;;;14.20;87.60;;;;;;4990230;28;20352;-70
2023/08/07 02:37:30;;;;;;;;;;;14.20;87.60;;;;;;4989323;28;19930;-62
2023/08/07 02:39:59;;;;;;;;;;;14.20;87.30;;;;;;4990895;28;19940;-63
2023/08/07 02:42:29;;;;;;;;;;;14.20;87.40;;;;;;4989434;28;20371;-63
2023/08/07 02:44:56;;;;;;;;;;;14.20;87.40;;;;;;4989988;28;20436;-62
2023/08/07 02:47:28;;;;;;;;;;;14.20;87.50;;;;;;4989533;28;19952;-62
2023/08/07 02:50:01;;;;;;;;;;;14.10;87.60;;;;;;4990186;28;20024;-63
2023/08/07 02:52:34;;;;;;;;;;;14.10;87.60;;;;;;4990241;28;20012;-63
2023/08/07 02:55:07;;;;;;;;;;;14.20;87.60;;;;;;4990979;28;19926;-64
2023/08/07 02:57:43;;;;;;;;;;;14.10;87.60;;;;;;4990300;28;19984;-64
2023/08/07 03:00:17;;;;;;;;;;;14.20;87.50;;;;;;4989445;28;19934;-63
2023/08/07 03:02:47;;;;;;;;;;;14.10;87.70;;;;;;4986626;28;19933;-63
2023/08/07 03:05:15;;;;;;;;;;;14.20;87.70;;;;;;4990044;28;19925;-63
2023/08/07 03:07:43;;;;;;;;;;;14.20;87.60;;;;;;4989004;28;20466;-63
2023/08/07 03:10:15;;;;;;;;;;;14.10;87.60;;;;;;4990486;28;19941;-63
2023/08/07 03:12:50;;;;;;;;;;;14.10;87.70;;;;;;4988291;28;19930;-63
2023/08/07 03:15:22;;;;;;;;;;;14.10;87.80;;;;;;4991238;28;19934;-63
2023/08/07 03:17:53;;;;;;;;;;;14.10;87.70;;;;;;4988999;28;19936;-63
2023/08/07 03:20:20;;;;;;;;;;;14.10;87.70;;;;;;4990953;28;19932;-63
2023/08/07 03:22:50;;;;;;;;;;;14.10;87.80;;;;;;4987448;28;19957;-63
2023/08/07 03:25:26;;;;;;;;;;;14.10;87.80;;;;;;4990429;28;20024;-63
2023/08/07 03:27:59;;;;;;;;;;;14.00;87.80;;;;;;4991683;28;19929;-63
2023/08/07 03:30:31;;;;;;;;;;;14.00;88.00;;;;;;5004641;28;19980;-62
2023/08/07 03:33:02;;;;;;;;;;;13.90;88.20;;;;;;4990663;28;19972;-62
2023/08/07 03:35:31;;;;;;;;;;;14.00;87.90;;;;;;4986614;28;20293;-62
2023/08/07 03:38:01;;;;;;;;;;;14.00;88.00;;;;;;4989159;28;19930;-62
2023/08/07 03:40:31;;;;;;;;;;;13.90;88.10;;;;;;4988942;28;19930;-64
2023/08/07 03:43:07;;;;;;;;;;;13.90;88.00;;;;;;4988736;28;20016;-62
2023/08/07 03:45:37;;;;;;;;;;;13.90;87.90;;;;;;4990420;28;20266;-62
2023/08/07 03:48:08;;;;;;;;;;;13.90;88.10;;;;;;4989649;28;19937;-77
2023/08/07 03:50:39;;;;;;;;;;;13.90;88.00;;;;;;4988517;28;19984;-78
2023/08/07 03:53:11;;;;;;;;;;;13.90;88.00;;;;;;4987581;28;20349;-77
2023/08/07 03:55:45;;;;;;;;;;;13.90;88.10;;;;;;4989282;28;20089;-80
2023/08/07 03:58:25;;;;;;;;;;;13.90;88.00;;;;;;5004619;28;20297;-79
2023/08/07 04:01:00;;;;;;;;;;;13.90;88.20;;;;;;4987926;28;20444;-77
2023/08/07 04:03:32;;;;;;;;;;;13.90;88.10;;;;;;4986237;28;20313;-78
2023/08/07 04:06:05;;;;;;;;;;;13.90;88.10;;;;;;4980327;28;20435;-77
2023/08/07 04:08:32;;;;;;;;;;;13.90;88.20;;;;;;4992759;28;19945;-79
2023/08/07 04:11:01;;;;;;;;;;;13.90;88.30;;;;;;4983327;28;20271;-78
2023/08/07 04:13:31;;;;;;;;;;;13.90;88.20;;;;;;5004938;28;19934;-78
2023/08/07 04:16:04;;;;;;;;;;;13.90;88.20;;;;;;5007056;28;19983;-78
2023/08/07 04:18:31;;;;;;;;;;;13.80;88.20;;;;;;4989087;28;20337;-78
2023/08/07 04:21:00;;;;;;;;;;;13.80;88.30;;;;;;4989012;28;19965;-77
2023/08/07 04:23:31;;;;;;;;;;;13.80;88.20;;;;;;4988495;28;19992;-78
2023/08/07 04:26:04;;;;;;;;;;;13.80;88.30;;;;;;4989503;28;19937;-78
2023/08/07 04:28:39;;;;;;;;;;;13.80;88.30;;;;;;4979331;28;20377;-79
2023/08/07 04:31:09;;;;;;;;;;;13.80;88.20;;;;;;4989421;28;19937;-78
2023/08/07 04:33:38;;;;;;;;;;;13.80;88.10;;;;;;4987302;28;20013;-79
2023/08/07 04:36:07;;;;;;;;;;;13.80;88.20;;;;;;4978859;28;19925;-77
2023/08/07 04:38:35;;;;;;;;;;;13.80;88.20;;;;;;4980525;28;19930;-79
2023/08/07 04:41:06;;;;;;;;;;;13.80;88.20;;;;;;4986621;28;19981;-78
2023/08/07 04:43:35;;;;;;;;;;;13.70;88.10;;;;;;4984370;28;19933;-77
2023/08/07 04:46:09;;;;;;;;;;;13.70;88.30;;;;;;4979255;28;20393;-77
2023/08/07 04:48:42;;;;;;;;;;;13.70;88.30;;;;;;4980972;28;19997;-77
2023/08/07 04:51:11;;;;;;;;;;;13.70;88.30;;;;;;4988535;28;19933;-79
2023/08/07 04:53:39;;;;;;;;;;;13.80;88.10;;;;;;4972682;28;19969;-78
2023/08/07 04:56:10;;;;;;;;;;;13.70;88.10;;;;;;4979643;28;19965;-78
2023/08/07 04:58:42;;;;;;;;;;;13.70;88.30;;;;;;4989026;28;19941;-63
2023/08/07 05:01:13;;;;;;;;;;;13.70;88.30;;;;;;4990562;28;19930;-63
2023/08/07 05:03:44;;;;;;;;;;;13.70;88.30;;;;;;4988707;28;19936;-62
2023/08/07 05:06:12;;;;;;;;;;;13.80;88.30;;;;;;4988089;28;20017;-63
2023/08/07 05:08:48;;;;;;;;;;;13.70;88.20;;;;;;4969168;28;20021;-63
2023/08/07 05:11:24;;;;;;;;;;;13.70;88.10;;;;;;4968863;28;19993;-62
2023/08/07 05:14:01;;;;;;;;;;;13.70;88.20;;;;;;4983100;28;19933;-63
2023/08/07 05:16:43;;;;;;;;;;;13.70;88.20;;;;;;4975240;28;19936;-62
2023/08/07 05:19:24;;;;;;;;;;;13.70;88.20;;;;;;4987699;28;20071;-64
2023/08/07 05:22:00;;;;;;;;;;;13.70;88.30;;;;;;4987905;28;20017;-63
2023/08/07 05:24:38;;;;;;;;;;;13.70;88.40;;;;;;4987763;28;19969;-63
2023/08/07 05:27:14;;;;;;;;;;;13.70;88.40;;;;;;4988095;28;19929;-63
2023/08/07 05:29:51;;;;;;;;;;;13.70;88.30;;;;;;4986947;28;19930;-63
2023/08/07 05:32:33;;;;;;;;;;;13.70;88.20;;;;;;4986652;28;19925;-62
2023/08/07 05:35:06;;;;;;;;;;;13.80;88.20;;;;;;4979181;28;19934;-63
2023/08/07 05:37:49;;;;;;;;;;;13.70;88.20;;;;;;4981819;28;19930;-62
2023/08/07 05:40:25;;;;;;;;;;;13.80;88.30;;;;;;4990067;28;20356;-62
2023/08/07 05:43:05;;;;;;;;;;;13.70;88.20;;;;;;4976347;28;20004;-62
2023/08/07 05:46:00;;;;;;;;;;;13.70;88.30;;;;;;4986310;28;19930;-62
2023/08/07 05:48:47;;;;;;;;;;;13.70;88.30;;;;;;4991914;28;19936;-62
2023/08/07 05:52:12;;;;;;;;;;;13.70;88.20;;;;;;4991532;28;19936;-62
2023/08/07 05:54:58;;;;;;;;;;;13.70;88.40;;;;;;4991976;28;19932;-62
2023/08/07 05:57:36;;;;;;;;;;;13.70;88.10;;;;;;4990815;28;19936;-63
2023/08/07 06:00:23;;;;;;;;;;;13.80;88.10;;;;;;4991708;28;19956;-62
2023/08/07 06:03:17;;;;;;;;;;;13.70;88.10;;;;;;4988822;28;20000;-62
2023/08/07 06:06:01;;;;;;;;;;;13.70;88.10;;;;;;4991395;28;19929;-64
2023/08/07 06:08:51;;;;;;;;;;;13.70;88.00;;;;;;4991048;28;19937;-76
2023/08/07 06:11:30;;;;;;;;;;;13.80;88.10;;;;;;4991002;28;19940;-79
2023/08/07 06:14:28;;;;;;;;;;;13.80;88.20;;;;;;4990979;28;19944;-77
2023/08/07 06:17:19;;;;;;;;;;;13.80;88.10;;;;;;4991084;28;19936;-79
2023/08/07 06:19:58;;;;;;;;;;;13.80;88.00;;;;;;4990669;28;20925;-79
2023/08/07 06:22:47;;;;;;;;;;;13.80;88.00;;;;;;4992417;28;20389;-79
2023/08/07 06:25:27;;;;;;;;;;;13.90;88.10;;;;;;4992802;28;19929;-76
2023/08/07 06:28:12;;;;;;;;;;;13.90;88.00;;;;;;4990505;28;19941;-78
2023/08/07 06:30:51;;;;;;;;;;;13.90;87.90;;;;;;4990566;28;19973;-79
2023/08/07 06:33:56;;;;;;;;;;;13.90;88.00;;;;;;4991128;28;19926;-77
2023/08/07 06:36:49;;;;;;;;;;;13.90;87.80;;;;;;4987820;28;19941;-78
2023/08/07 06:39:38;;;;;;;;;;;13.90;87.80;;;;;;4990971;28;19976;-79
2023/08/07 06:42:42;;;;;;;;;;;13.90;87.80;;;;;;4990950;28;19930;-79
2023/08/07 06:45:39;;;;;;;;;;;13.90;87.90;;;;;;4991214;28;19936;-78
2023/08/07 06:48:24;;;;;;;;;;;13.90;87.90;;;;;;4988757;28;19925;-78
2023/08/07 07:01:32;;;;;;;;;;;14.00;87.90;;;;;;4991254;28;19933;-79
2023/08/07 07:08:03;;;;;;;;;;;14.00;87.90;;;;;;4987313;28;19933;-78
2023/08/07 07:17:33;;;;;;;;;;;14.00;87.80;;;;;;4988814;28;20300;-63
2023/08/07 07:20:52;;;;;;;;;;;14.00;87.90;;;;;;4989675;28;20213;-63
2023/08/07 07:24:28;;;;;;;;;;;14.00;87.90;;;;;;4990360;28;19940;-62
2023/08/07 07:35:10;;;;;;;;;;;14.10;87.80;;;;;;4989396;28;20428;-63
2023/08/07 07:41:26;;;;;;;;;;;14.10;88.00;;;;;;4989170;28;20304;-63
2023/08/07 07:44:44;;;;;;;;;;;14.10;87.80;;;;;;4989683;28;19937;-62
2023/08/07 07:47:56;;;;;;;;;;;14.10;88.00;;;;;;4989041;28;19936;-62
2023/08/07 07:54:52;;;;;;;;;;;14.10;87.90;;;;;;4988335;28;20055;-62
2023/08/07 08:01:43;;;;;;;;;;;14.10;87.70;;;;;;4986635;28;19976;-66
2023/08/07 08:05:07;;;;;;;;;;;14.10;87.90;;;;;;4982384;28;19949;-68
2023/08/07 08:08:39;;;;;;;;;;;14.10;87.90;;;;;;4984393;28;19944;-67
2023/08/07 08:12:14;;;;;;;;;;;14.10;88.00;;;;;;4986002;28;19933;-66
2023/08/07 08:15:52;;;;;;;;;;;14.10;87.80;;;;;;4987111;28;19932;-65
2023/08/07 08:19:07;;;;;;;;;;;14.10;87.80;;;;;;4989021;28;19933;-66
2023/08/07 08:25:49;;;;;;;;;;;14.10;87.60;;;;;;4989464;28;20000;-65
2023/08/07 08:42:53;;;;;;;;;;;14.20;87.60;;;;;;4985084;28;20557;-66
2023/08/07 08:45:32;;;;;;;;;;;14.20;87.50;;;;;;4987289;28;19926;-66
2023/08/07 08:48:14;;;;;;;;;;;14.20;87.60;;;;;;4987485;28;19933;-64
2023/08/07 08:50:54;;;;;;;;;;;14.20;87.60;;;;;;4984448;28;20009;-65
2023/08/07 08:53:32;;;;;;;;;;;14.30;87.50;;;;;;4986433;28;20012;-66
2023/08/07 08:56:09;;;;;;;;;;;14.20;87.60;;;;;;4988329;28;19926;-65
2023/08/07 08:58:45;;;;;;;;;;;14.20;87.60;;;;;;4986923;28;19925;-68
2023/08/07 09:01:29;;;;;;;;;;;14.30;87.60;;;;;;4986203;28;19945;-67
2023/08/07 09:04:10;;;;;;;;;;;14.30;87.70;;;;;;4987060;28;20021;-65
2023/08/07 09:07:07;;;;;;;;;;;14.30;87.70;;;;;;4948818;28;19934;-66
2023/08/07 09:09:46;;;;;;;;;;;14.30;87.80;;;;;;4965103;28;19934;-65
2023/08/07 09:12:26;;;;;;;;;;;14.30;87.50;;;;;;4963929;28;19977;-66
2023/08/07 09:15:07;;;;;;;;;;;14.40;87.70;;;;;;4962910;28;19926;-65
2023/08/07 09:17:46;;;;;;;;;;;14.40;87.40;;;;;;4964734;28;19959;-66
2023/08/07 09:20:22;;;;;;;;;;;14.40;87.40;;;;;;4965664;28;19974;-66
2023/08/07 09:22:58;;;;;;;;;;;14.40;87.30;;;;;;4964782;28;19930;-66
2023/08/07 09:25:42;;;;;;;;;;;14.50;87.30;;;;;;4963097;28;20084;-66
2023/08/07 09:28:31;;;;;;;;;;;14.50;87.40;;;;;;4963751;28;19937;-68
2023/08/07 09:31:12;;;;;;;;;;;14.50;87.30;;;;;;4963063;28;19930;-68
2023/08/07 09:33:52;;;;;;;;;;;14.40;87.40;;;;;;4964160;28;19930;-67
2023/08/07 09:36:32;;;;;;;;;;;14.50;87.40;;;;;;4962967;28;20380;-68
2023/08/07 09:39:14;;;;;;;;;;;14.50;87.30;;;;;;4963529;28;19937;-67
2023/08/07 09:42:03;;;;;;;;;;;14.40;87.40;;;;;;4963762;28;19934;-65
2023/08/07 09:45:03;;;;;;;;;;;14.40;87.40;;;;;;4963587;28;20012;-66
2023/08/07 09:47:55;;;;;;;;;;;14.40;87.50;;;;;;4962006;28;20020;-66
2023/08/07 09:50:34;;;;;;;;;;;14.40;87.50;;;;;;4959673;28;19933;-65
2023/08/07 09:53:20;;;;;;;;;;;14.40;87.30;;;;;;4963681;28;19930;-66
2023/08/07 09:56:02;;;;;;;;;;;14.40;87.40;;;;;;4960052;28;19930;-64
2023/08/07 09:58:58;;;;;;;;;;;14.40;87.40;;;;;;4910197;28;19930;-64
2023/08/07 10:01:51;;;;;;;;;;;14.40;87.40;;;;;;4963008;28;19934;-65
2023/08/07 10:04:30;;;;;;;;;;;14.50;87.30;;;;;;4961567;28;20026;-65
2023/08/07 10:07:08;;;;;;;;;;;14.50;87.20;;;;;;4960366;28;20306;-65
2023/08/07 10:09:51;;;;;;;;;;;14.60;87.20;;;;;;4964553;28;19934;-65
2023/08/07 10:12:42;;;;;;;;;;;14.60;87.10;;;;;;4963622;28;19937;-67
2023/08/07 10:15:27;;;;;;;;;;;14.70;87.00;;;;;;4962267;28;19926;-65
2023/08/07 10:18:10;;;;;;;;;;;14.80;86.90;;;;;;4965904;28;20030;-64
2023/08/07 10:21:07;;;;;;;;;;;14.80;86.90;;;;;;4965021;28;19937;-66
2023/08/07 10:24:13;;;;;;;;;;;14.80;86.80;;;;;;4982523;28;20396;-67
2023/08/07 10:27:15;;;;;;;;;;;14.70;87.00;;;;;;4987332;28;19937;-63
2023/08/07 10:29:58;;;;;;;;;;;14.70;87.10;;;;;;4982470;28;19937;-62
2023/08/07 10:33:04;;;;;;;;;;;14.70;87.10;;;;;;4987230;28;20069;-62
2023/08/07 10:36:12;;;;;;;;;;;14.70;87.20;;;;;;4990645;28;19929;-61
2023/08/07 10:39:25;;;;;;;;;;;14.70;87.20;;;;;;4991476;28;19956;-62
2023/08/07 10:42:24;;;;;;;;;;;14.70;87.20;;;;;;4990573;28;19930;-62
2023/08/07 10:45:21;;;;;;;;;;;14.70;87.20;;;;;;4990806;28;20017;-62
2023/08/07 10:48:21;;;;;;;;;;;14.70;87.30;;;;;;4989743;28;20024;-61
2023/08/07 10:51:25;;;;;;;;;;;14.60;87.40;;;;;;4990535;28;20204;-62
2023/08/07 10:54:15;;;;;;;;;;;14.60;87.50;;;;;;4990066;28;19938;-63
2023/08/07 10:57:18;;;;;;;;;;;14.60;87.40;;;;;;4990696;28;19930;-62
2023/08/07 11:00:16;;;;;;;;;;;14.60;87.30;;;;;;4990489;28;20004;-62
2023/08/07 11:03:31;;;;;;;;;;;14.60;87.20;;;;;;4989577;28;19934;-62
2023/08/07 11:10:15;;;;;;;;;;;14.60;87.20;;;;;;4987928;28;19981;-63
2023/08/07 11:13:04;;;;;;;;;;;14.60;87.20;;;;;;4990253;28;20016;-62
2023/08/07 11:19:20;;;;;;;;;;;14.80;87.10;;;;;;4990150;28;19933;-62
2023/08/07 11:21:51;;;;;;;;;;;14.80;87.10;;;;;;4990092;28;19929;-62
2023/08/07 11:24:27;;;;;;;;;;;14.80;87.20;;;;;;4989916;28;20329;-62
2023/08/07 11:27:17;;;;;;;;;;;14.80;87.20;;;;;;4989104;28;19976;-65
2023/08/07 11:30:04;;;;;;;;;;;14.90;87.00;;;;;;4990208;28;20029;-61
2023/08/07 11:33:06;;;;;;;;;;;14.90;87.10;;;;;;4985449;28;20084;-63
2023/08/07 11:35:45;;;;;;;;;;;14.90;87.00;;;;;;4989186;28;19976;-62
2023/08/07 11:39:00;;;;;;;;;;;14.90;87.20;;;;;;4989298;28;19937;-72
2023/08/07 11:41:38;;;;;;;;;;;14.90;87.00;;;;;;4988141;28;20021;-73
2023/08/07 11:44:24;;;;;;;;;;;15.00;87.00;;;;;;4987812;28;20300;-72
2023/08/07 11:46:59;;;;;;;;;;;15.10;86.80;;;;;;4989625;28;19926;-72
2023/08/07 11:49:36;;;;;;;;;;;15.10;86.80;;;;;;4989269;28;19949;-72
2023/08/07 11:52:08;;;;;;;;;;;15.10;86.90;;;;;;4987952;28;19937;-73
2023/08/07 11:54:42;;;;;;;;;;;15.10;86.80;;;;;;4988371;28;19926;-73
2023/08/07 11:57:23;;;;;;;;;;;15.10;86.70;;;;;;4989068;28;20016;-72
2023/08/07 11:59:56;;;;;;;;;;;15.10;86.80;;;;;;4989416;28;20440;-71
2023/08/07 12:02:41;;;;;;;;;;;15.10;86.80;;;;;;4988385;28;19930;-72
2023/08/07 12:05:14;;;;;;;;;;;15.00;87.00;;;;;;4989127;28;20022;-72
2023/08/07 12:07:46;;;;;;;;;;;15.00;86.90;;;;;;4986403;28;19929;-71
2023/08/07 12:10:19;;;;;;;;;;;15.00;86.90;;;;;;4989923;28;19953;-72
2023/08/07 12:12:51;;;;;;;;;;;15.00;87.00;;;;;;4982029;28;20048;-72
2023/08/07 12:15:22;;;;;;;;;;;15.00;87.10;;;;;;4982187;28;19934;-71
2023/08/07 12:18:06;;;;;;;;;;;15.00;87.10;;;;;;4987821;28;19933;-71
2023/08/07 12:20:39;;;;;;;;;;;15.00;87.20;;;;;;4986990;28;20012;-71
2023/08/07 12:23:12;;;;;;;;;;;15.00;87.10;;;;;;4988164;28;19952;-71
2023/08/07 12:25:52;;;;;;;;;;;15.10;87.10;;;;;;4989188;28;19929;-72
2023/08/07 12:28:22;;;;;;;;;;;15.00;87.00;;;;;;4987688;28;20029;-71
2023/08/07 12:30:52;;;;;;;;;;;15.00;87.10;;;;;;4988323;28;20009;-71
2023/08/07 12:33:19;;;;;;;;;;;15.00;87.10;;;;;;4982591;28;19952;-72
2023/08/07 12:35:49;;;;;;;;;;;15.00;87.00;;;;;;4987924;28;20028;-72
2023/08/07 12:38:23;;;;;;;;;;;15.10;86.90;;;;;;4987195;28;19926;-72
2023/08/07 12:40:57;;;;;;;;;;;15.20;86.80;;;;;;4987835;28;19934;-73
2023/08/07 12:43:25;;;;;;;;;;;15.40;86.70;;;;;;4987747;28;20407;-72
2023/08/07 12:45:55;;;;;;;;;;;15.70;86.40;;;;;;4987210;28;20409;-72
2023/08/07 12:48:26;;;;;;;;;;;15.80;86.20;;;;;;4987544;28;19988;-69
2023/08/07 12:50:54;;;;;;;;;;;15.90;86.10;;;;;;5003058;28;19930;-68
2023/08/07 12:53:22;;;;;;;;;;;16.00;86.00;;;;;;4986997;28;19956;-69
2023/08/07 12:55:50;;;;;;;;;;;16.00;85.90;;;;;;4987150;28;20037;-68
2023/08/07 12:58:22;;;;;;;;;;;16.00;85.70;;;;;;4988328;28;19933;-70
2023/08/07 13:00:54;;;;;;;;;;;16.00;85.60;;;;;;4987248;28;19930;-70
2023/08/07 13:03:30;;;;;;;;;;;15.90;85.60;;;;;;4987096;28;20017;-69
2023/08/07 13:06:08;;;;;;;;;;;16.00;85.30;;;;;;4987748;28;20393;-69
2023/08/07 13:08:40;;;;;;;;;;;16.10;85.10;;;;;;4986983;28;19960;-69
2023/08/07 13:11:14;;;;;;;;;;;16.10;85.10;;;;;;4988072;28;19932;-68
2023/08/07 13:13:47;;;;;;;;;;;16.20;84.90;;;;;;4987885;28;19930;-71
2023/08/07 13:16:16;;;;;;;;;;;16.20;84.80;;;;;;4986855;28;20009;-69
2023/08/07 13:18:44;;;;;;;;;;;16.30;84.60;;;;;;4987059;28;19937;-69
2023/08/07 13:21:12;;;;;;;;;;;16.30;84.60;;;;;;4988113;28;19930;-69
2023/08/07 13:23:42;;;;;;;;;;;16.40;84.60;;;;;;4983975;28;19926;-70
2023/08/07 13:26:15;;;;;;;;;;;16.30;84.50;;;;;;4988756;28;19934;-70
2023/08/07 13:28:47;;;;;;;;;;;16.30;84.40;;;;;;4988063;28;19978;-68
2023/08/07 13:31:14;;;;;;;;;;;16.30;84.30;;;;;;4987258;28;19930;-70
2023/08/07 13:33:43;;;;;;;;;;;16.30;84.20;;;;;;4987419;28;20381;-70
2023/08/07 13:36:15;;;;;;;;;;;16.20;84.30;;;;;;4987843;28;19941;-69
2023/08/07 13:38:46;;;;;;;;;;;16.10;84.30;;;;;;4988341;28;19934;-69
2023/08/07 13:41:20;;;;;;;;;;;16.30;84.20;;;;;;4986357;28;20304;-68
2023/08/07 13:43:56;;;;;;;;;;;16.60;84.00;;;;;;4988594;28;19933;-69
2023/08/07 13:46:28;;;;;;;;;;;16.70;84.10;;;;;;4986214;28;20392;-69
2023/08/07 13:48:56;;;;;;;;;;;16.80;84.30;;;;;;4987181;28;19926;-69
2023/08/07 13:51:25;;;;;;;;;;;16.90;84.00;;;;;;4981752;28;20370;-69
2023/08/07 13:53:54;;;;;;;;;;;17.00;83.60;;;;;;4987957;28;19941;-68
2023/08/07 13:56:23;;;;;;;;;;;17.10;83.10;;;;;;4987164;28;19965;-68
2023/08/07 13:58:56;;;;;;;;;;;17.20;82.60;;;;;;4987551;28;19926;-67
2023/08/07 14:01:30;;;;;;;;;;;17.20;81.40;;;;;;4987103;28;19934;-65
2023/08/07 14:04:05;;;;;;;;;;;17.20;81.10;;;;;;4987477;28;20441;-66
2023/08/07 14:06:38;;;;;;;;;;;17.30;80.60;;;;;;4986960;28;20245;-66
2023/08/07 14:09:09;;;;;;;;;;;17.40;79.80;;;;;;4990989;28;19926;-66
2023/08/07 14:11:39;;;;;;;;;;;17.40;79.60;;;;;;4989830;28;19992;-67
2023/08/07 14:14:09;;;;;;;;;;;17.40;79.20;;;;;;4991597;28;19926;-67
2023/08/07 14:16:38;;;;;;;;;;;17.40;78.50;;;;;;4990711;28;19930;-66
2023/08/07 14:19:10;;;;;;;;;;;17.30;78.40;;;;;;4989201;28;20407;-68
2023/08/07 14:21:44;;;;;;;;;;;17.20;78.20;;;;;;4989629;28;19937;-67
2023/08/07 14:24:17;;;;;;;;;;;17.10;79.00;;;;;;4988553;28;21023;-68
2023/08/07 14:26:46;;;;;;;;;;;17.10;79.30;;;;;;4986801;28;20047;-68
2023/08/07 14:29:19;;;;;;;;;;;17.00;78.70;;;;;;4981759;28;19930;-67
2023/08/07 14:31:49;;;;;;;;;;;16.90;79.00;;;;;;4988519;28;19961;-65
2023/08/07 14:34:20;;;;;;;;;;;16.80;79.00;;;;;;4986711;28;19933;-66
2023/08/07 14:36:54;;;;;;;;;;;16.80;79.50;;;;;;4988831;28;19958;-66
2023/08/07 14:39:27;;;;;;;;;;;16.70;79.70;;;;;;4990074;28;20400;-67
2023/08/07 14:41:57;;;;;;;;;;;16.70;79.60;;;;;;4988040;28;19933;-66
2023/08/07 14:44:31;;;;;;;;;;;16.80;79.60;;;;;;4989007;28;20419;-67
2023/08/07 14:47:07;;;;;;;;;;;16.90;79.70;;;;;;4989695;28;19929;-66
2023/08/07 14:49:39;;;;;;;;;;;17.00;79.30;;;;;;4989930;28;19930;-67
2023/08/07 14:52:13;;;;;;;;;;;17.10;79.20;;;;;;4990374;28;19930;-67
2023/08/07 14:54:45;;;;;;;;;;;17.10;78.60;;;;;;4989998;28;19937;-66
2023/08/07 14:57:15;;;;;;;;;;;17.20;78.10;;;;;;4989569;28;19996;-68
2023/08/07 14:59:48;;;;;;;;;;;17.40;78.10;;;;;;4989823;28;19934;-68
2023/08/07 15:02:18;;;;;;;;;;;17.50;77.90;;;;;;4988405;28;19992;-67
2023/08/07 15:04:45;;;;;;;;;;;17.60;77.90;;;;;;4988943;28;19996;-67
2023/08/07 15:07:13;;;;;;;;;;;17.60;77.70;;;;;;4988876;28;19985;-79
2023/08/07 15:09:40;;;;;;;;;;;17.60;77.90;;;;;;4990408;28;20530;-81
2023/08/07 15:12:07;;;;;;;;;;;17.60;77.30;;;;;;4990642;28;20017;-81
2023/08/07 15:14:34;;;;;;;;;;;17.60;77.50;;;;;;4991409;28;20297;-80
2023/08/07 15:17:03;;;;;;;;;;;17.60;77.40;;;;;;4989605;28;19934;-80
2023/08/07 15:19:30;;;;;;;;;;;17.60;77.50;;;;;;4987638;28;20088;-80
2023/08/07 15:21:57;;;;;;;;;;;17.60;77.10;;;;;;4990458;28;19929;-80
2023/08/07 15:24:23;;;;;;;;;;;17.60;77.10;;;;;;4990076;28;19973;-78
2023/08/07 15:26:50;;;;;;;;;;;17.60;77.10;;;;;;4988788;28;19930;-80
2023/08/07 15:29:17;;;;;;;;;;;17.50;77.10;;;;;;4987992;28;19937;-79
2023/08/07 15:31:44;;;;;;;;;;;17.60;77.50;;;;;;4989187;28;19973;-79
2023/08/07 15:34:13;;;;;;;;;;;17.60;76.80;;;;;;4990046;28;19996;-81
2023/08/07 15:36:40;;;;;;;;;;;17.60;76.30;;;;;;4987863;28;19938;-79
2023/08/07 15:39:07;;;;;;;;;;;17.60;76.30;;;;;;4990537;28;20017;-81
2023/08/07 15:41:35;;;;;;;;;;;17.60;76.30;;;;;;4988077;28;20543;-80
2023/08/07 15:44:02;;;;;;;;;;;17.60;75.30;;;;;;4989441;28;20381;-79
2023/08/07 15:46:29;;;;;;;;;;;17.50;74.60;;;;;;4988313;28;19926;-79
2023/08/07 15:48:56;;;;;;;;;;;17.50;73.90;;;;;;4990629;28;19934;-78
2023/08/07 15:51:25;;;;;;;;;;;17.50;73.90;;;;;;4985607;28;19988;-80
2023/08/07 15:53:52;;;;;;;;;;;17.50;73.60;;;;;;4976667;28;19932;-81
2023/08/07 15:56:19;;;;;;;;;;;17.50;72.60;;;;;;4984889;28;19949;-81
2023/08/07 15:58:46;;;;;;;;;;;17.50;71.70;;;;;;4984865;28;19933;-77
2023/08/07 16:01:13;;;;;;;;;;;17.50;71.40;;;;;;4989624;28;19930;-81
2023/08/07 16:03:41;;;;;;;;;;;17.50;69.70;;;;;;4989233;28;20328;-79
2023/08/07 16:06:09;;;;;;;;;;;17.50;70.00;;;;;;4989561;28;19933;-81
2023/08/07 16:08:37;;;;;;;;;;;17.40;71.00;;;;;;4983422;28;19930;-79
2023/08/07 16:11:04;;;;;;;;;;;17.40;71.00;;;;;;4988162;28;19997;-80
2023/08/07 16:13:31;;;;;;;;;;;17.30;70.20;;;;;;4987475;28;19926;-78
2023/08/07 16:15:58;;;;;;;;;;;17.30;70.20;;;;;;4986640;28;19926;-81
2023/08/07 16:18:25;;;;;;;;;;;17.30;71.10;;;;;;4987578;28;19980;-69
2023/08/07 16:20:53;;;;;;;;;;;17.30;70.00;;;;;;4989201;28;19926;-67